createdAt,value
2018-07-13T00:00:49.982Z,94.20
2018-07-13T00:03:54.920Z,94.53
2018-07-13T00:07:00.077Z,93.61
2018-07-13T00:10:04.791Z,94.57
2018-07-13T00:13:09.244Z,94.37
2018-07-13T00:16:13.973Z,93.60
2018-07-13T00:19:19.460Z,94.49
2018-07-13T00:22:23.872Z,94.34
2018-07-13T00:25:28.512Z,94.13
2018-07-13T00:28:32.955Z,95.40
2018-07-13T00:31:38.768Z,95.27
2018-07-13T00:34:43.059Z,94.23
2018-07-13T00:37:47.576Z,95.31
2018-07-13T00:40:52.238Z,95.59
2018-07-13T00:43:56.675Z,95.65
2018-07-13T00:47:02.252Z,95.94
2018-07-13T00:50:07.146Z,95.27
2018-07-13T00:53:11.975Z,96.18
2018-07-13T00:56:16.891Z,95.97
2018-07-13T00:59:21.429Z,95.95
2018-07-13T01:02:25.747Z,96.03
2018-07-13T01:05:30.798Z,96.27
2018-07-13T01:08:35.567Z,96.81
2018-07-13T01:11:40.006Z,97.21
2018-07-13T01:14:44.477Z,97.04
2018-07-13T01:17:48.924Z,97.18
2018-07-13T01:20:53.780Z,96.71
2018-07-13T01:23:58.315Z,96.99
2018-07-13T01:27:03.153Z,97.70
2018-07-13T01:30:07.907Z,97.12
2018-07-13T01:33:13.239Z,98.08
2018-07-13T01:36:18.102Z,97.37
2018-07-13T01:39:23.094Z,97.17
2018-07-13T01:42:27.471Z,97.64
2018-07-13T01:45:32.497Z,97.38
2018-07-13T01:48:37.323Z,97.56
2018-07-13T01:51:42.040Z,97.44
2018-07-13T01:54:46.642Z,98.15
2018-07-13T01:57:51.588Z,97.85
2018-07-13T02:00:56.088Z,97.81
2018-07-13T02:04:00.653Z,97.57
2018-07-13T02:07:04.947Z,97.69
2018-07-13T02:10:09.776Z,97.44
2018-07-13T02:13:14.557Z,97.51
2018-07-13T02:16:18.967Z,97.85
2018-07-13T02:19:23.943Z,97.53
2018-07-13T02:22:28.842Z,97.10
2018-07-13T02:25:33.396Z,97.21
2018-07-13T02:28:37.953Z,97.56
2018-07-13T02:31:42.488Z,97.89
2018-07-13T02:34:47.615Z,97.82
2018-07-13T02:37:52.344Z,98.05
2018-07-13T02:40:56.659Z,98.00
2018-07-13T02:44:01.195Z,97.57
2018-07-13T02:47:05.929Z,97.74
2018-07-13T02:50:10.544Z,97.22
2018-07-13T02:53:14.888Z,97.90
2018-07-13T02:56:19.378Z,97.02
2018-07-13T02:59:23.833Z,97.99
2018-07-13T03:02:28.505Z,97.31
2018-07-13T03:05:32.828Z,97.03
2018-07-13T03:08:37.392Z,97.78
2018-07-13T03:11:42.176Z,97.22
2018-07-13T03:14:46.521Z,97.78
2018-07-13T03:17:55.208Z,97.91
2018-07-13T03:20:59.573Z,98.10
2018-07-13T03:24:04.057Z,97.13
2018-07-13T03:27:08.615Z,97.20
2018-07-13T03:30:13.071Z,97.24
2018-07-13T03:33:17.541Z,96.84
2018-07-13T03:36:21.894Z,96.40
2018-07-13T03:39:26.204Z,96.14
2018-07-13T03:42:30.696Z,95.77
2018-07-13T03:45:35.158Z,95.49
2018-07-13T03:48:39.759Z,94.56
2018-07-13T03:51:44.075Z,93.39
2018-07-13T03:54:48.416Z,93.71
2018-07-13T03:57:52.763Z,93.20
2018-07-13T04:00:57.142Z,92.40
2018-07-13T04:04:01.569Z,91.37
2018-07-13T04:07:06.346Z,91.46
2018-07-13T04:10:11.017Z,91.09
2018-07-13T04:13:15.764Z,91.29
2018-07-13T04:16:20.387Z,91.78
2018-07-13T04:19:25.208Z,92.18
2018-07-13T04:22:30.224Z,92.69
2018-07-13T04:25:35.504Z,92.53
2018-07-13T04:28:40.127Z,92.48
2018-07-13T04:31:45.955Z,93.68
2018-07-13T04:34:51.535Z,93.60
2018-07-13T04:37:56.342Z,93.44
2018-07-13T04:41:01.078Z,93.76
2018-07-13T04:44:06.352Z,93.51
2018-07-13T04:47:11.357Z,93.70
2018-07-13T04:50:16.054Z,93.64
2018-07-13T04:53:20.843Z,94.06
2018-07-13T04:56:26.166Z,93.94
2018-07-13T04:59:30.532Z,93.83
2018-07-13T05:02:35.669Z,92.72
2018-07-13T05:05:40.295Z,92.70
2018-07-13T05:08:44.893Z,92.46
2018-07-13T05:11:49.755Z,92.43
2018-07-13T05:14:54.848Z,92.28
2018-07-13T05:18:00.023Z,91.99
2018-07-13T05:21:04.688Z,91.45
2018-07-13T05:24:09.510Z,91.30
2018-07-13T05:27:14.519Z,90.54
2018-07-13T05:30:19.028Z,89.63
2018-07-13T05:33:24.887Z,90.60
2018-07-13T05:36:29.483Z,90.39
2018-07-13T05:39:33.840Z,90.22
2018-07-13T05:42:38.452Z,90.19
2018-07-13T05:45:43.049Z,89.63
2018-07-13T05:48:47.898Z,89.55
2018-07-13T05:51:52.721Z,89.77
2018-07-13T05:54:58.375Z,89.68
2018-07-13T05:58:02.717Z,90.10
2018-07-13T06:01:07.134Z,89.06
2018-07-13T06:04:12.130Z,89.75
2018-07-13T06:07:17.205Z,88.61
2018-07-13T06:10:22.477Z,89.01
2018-07-13T06:13:26.889Z,88.37
2018-07-13T06:16:31.237Z,88.18
2018-07-13T06:19:35.755Z,87.15
2018-07-13T06:22:40.495Z,86.28
2018-07-13T06:25:44.777Z,86.20
2018-07-13T06:28:49.486Z,85.18
2018-07-13T06:31:53.985Z,83.83
2018-07-13T06:34:59.368Z,84.06
2018-07-13T06:38:03.767Z,83.00
2018-07-13T06:41:08.189Z,83.02
2018-07-13T06:44:12.692Z,82.42
2018-07-13T06:47:17.535Z,81.66
2018-07-13T06:50:22.173Z,81.12
2018-07-13T06:53:26.579Z,79.99
2018-07-13T06:56:30.865Z,78.94
2018-07-13T06:59:35.224Z,78.94
2018-07-13T07:02:42.534Z,78.00
2018-07-13T07:06:06.850Z,78.28
2018-07-13T07:09:11.503Z,77.32
2018-07-13T07:13:29.583Z,76.19
2018-07-13T07:16:34.151Z,74.61
2018-07-13T07:19:38.642Z,73.87
2018-07-13T07:22:43.073Z,73.56
2018-07-13T07:25:47.496Z,71.13
2018-07-13T07:28:52.174Z,70.40
2018-07-13T07:31:56.655Z,69.21
2018-07-13T07:35:01.428Z,69.31
2018-07-13T07:38:05.864Z,70.70
2018-07-13T07:41:11.182Z,71.39
2018-07-13T07:44:15.626Z,71.82
2018-07-13T07:47:20.147Z,69.79
2018-07-13T07:50:24.945Z,69.95
2018-07-13T07:53:29.433Z,69.44
2018-07-13T07:56:34.057Z,69.63
2018-07-13T07:59:38.879Z,68.59
2018-07-13T08:02:46.296Z,68.92
2018-07-13T08:05:50.831Z,68.51
2018-07-13T08:08:55.708Z,67.60
2018-07-13T08:12:00.458Z,65.51
2018-07-13T08:15:05.530Z,66.54
2018-07-13T08:18:10.120Z,65.72
2018-07-13T08:21:14.889Z,65.72
2018-07-13T08:24:22.466Z,65.41
2018-07-13T08:28:02.044Z,64.41
2018-07-13T08:31:06.932Z,64.17
2018-07-13T08:34:11.475Z,63.56
2018-07-13T08:37:16.092Z,62.49
2018-07-13T08:40:22.868Z,62.56
2018-07-13T08:43:28.022Z,61.43
2018-07-13T08:46:32.579Z,61.85
2018-07-13T08:49:37.156Z,61.62
2018-07-13T08:52:42.397Z,61.23
2018-07-13T08:55:47.013Z,61.51
2018-07-13T08:58:51.992Z,60.56
2018-07-13T09:01:56.673Z,59.34
2018-07-13T09:05:01.959Z,59.99
2018-07-13T09:08:06.849Z,59.46
2018-07-13T09:11:11.908Z,59.66
2018-07-13T09:14:16.938Z,59.67
2018-07-13T09:17:21.817Z,58.89
2018-07-13T09:20:26.346Z,57.53
2018-07-13T09:23:31.110Z,58.30
2018-07-13T09:26:36.164Z,57.31
2018-07-13T09:29:40.901Z,56.38
2018-07-13T09:32:45.517Z,55.96
2018-07-13T09:35:50.575Z,56.47
2018-07-13T09:38:55.889Z,55.60
2018-07-13T09:42:00.473Z,54.88
2018-07-13T09:45:04.520Z,55.07
2018-07-13T09:48:09.421Z,55.64
2018-07-13T09:51:14.780Z,55.91
2018-07-13T09:54:19.851Z,55.87
2018-07-13T09:57:24.750Z,55.57
2018-07-13T10:00:34.523Z,55.70
2018-07-13T10:03:39.235Z,54.64
2018-07-13T10:06:48.273Z,55.28
2018-07-13T10:09:52.949Z,53.97
2018-07-13T10:12:58.746Z,53.28
2018-07-13T10:16:03.420Z,54.08
2018-07-13T10:19:08.073Z,54.22
2018-07-13T10:22:16.253Z,53.22
2018-07-13T10:25:20.917Z,52.09
2018-07-13T10:28:25.883Z,51.71
2018-07-13T10:31:30.445Z,50.93
2018-07-13T10:34:35.275Z,52.15
2018-07-13T10:37:42.203Z,52.53
2018-07-13T10:40:47.045Z,52.67
2018-07-13T10:43:51.429Z,52.95
2018-07-13T10:46:56.309Z,53.18
2018-07-13T10:50:01.107Z,52.72
2018-07-13T10:53:06.598Z,51.80
2018-07-13T10:56:11.353Z,51.27
2018-07-13T10:59:15.862Z,50.99
2018-07-13T11:02:20.780Z,50.62
2018-07-13T11:05:25.202Z,50.87
2018-07-13T11:08:29.970Z,51.42
2018-07-13T11:11:34.505Z,50.95
2018-07-13T11:14:39.141Z,51.20
2018-07-13T11:17:43.570Z,50.52
2018-07-13T11:20:48.011Z,49.89
2018-07-13T11:23:52.554Z,49.83
2018-07-13T11:26:57.158Z,49.40
2018-07-13T11:30:01.873Z,49.45
2018-07-13T11:33:06.440Z,50.62
2018-07-13T11:36:10.869Z,51.00
2018-07-13T11:39:15.364Z,51.69
2018-07-13T11:42:19.756Z,50.46
2018-07-13T11:45:24.044Z,50.24
2018-07-13T11:48:28.488Z,49.65
2018-07-13T11:51:32.985Z,49.90
2018-07-13T11:54:37.356Z,50.65
2018-07-13T11:57:41.772Z,50.94
2018-07-13T12:00:46.199Z,51.83
2018-07-13T12:03:50.537Z,50.82
2018-07-13T12:06:55.171Z,51.82
2018-07-13T12:09:59.811Z,51.98
2018-07-13T12:13:04.204Z,51.05
2018-07-13T12:16:08.917Z,51.04
2018-07-13T12:19:13.441Z,50.68
2018-07-13T12:22:18.544Z,51.91
2018-07-13T12:25:22.917Z,51.38
2018-07-13T12:28:27.797Z,52.34
2018-07-13T12:31:32.152Z,51.98
2018-07-13T12:34:36.826Z,51.34
2018-07-13T12:37:41.182Z,51.70
2018-07-13T12:40:46.670Z,51.22
2018-07-13T12:43:51.090Z,49.97
2018-07-13T12:46:55.376Z,52.17
2018-07-13T12:49:59.898Z,52.52
2018-07-13T12:53:04.355Z,51.68
2018-07-13T12:56:08.795Z,52.14
2018-07-13T12:59:13.466Z,54.05
2018-07-13T13:02:18.010Z,51.62
2018-07-13T13:05:22.515Z,52.23
2018-07-13T13:08:27.002Z,52.07
2018-07-13T13:11:31.391Z,51.66
2018-07-13T13:14:35.910Z,52.96
2018-07-13T13:17:40.645Z,53.65
2018-07-13T13:20:45.126Z,53.21
2018-07-13T13:23:49.480Z,51.21
2018-07-13T13:26:54.251Z,51.68
2018-07-13T13:29:58.717Z,52.59
2018-07-13T13:33:03.368Z,52.49
2018-07-13T13:36:07.673Z,51.84
2018-07-13T13:39:11.944Z,51.92
2018-07-13T13:42:16.317Z,51.63
2018-07-13T13:45:20.733Z,50.61
2018-07-13T13:48:25.090Z,51.44
2018-07-13T13:51:29.939Z,51.84
2018-07-13T13:54:35.073Z,52.46
2018-07-13T13:57:39.911Z,51.65
2018-07-13T14:00:44.273Z,52.34
2018-07-13T14:03:48.939Z,51.96
2018-07-13T14:06:53.402Z,52.74
2018-07-13T14:09:59.688Z,52.11
2018-07-13T14:13:04.177Z,52.70
2018-07-13T14:16:09.338Z,52.44
2018-07-13T14:19:13.697Z,53.31
2018-07-13T14:22:18.629Z,52.52
2018-07-13T14:25:22.934Z,53.21
2018-07-13T14:28:27.327Z,53.97
2018-07-13T14:31:31.561Z,53.06
2018-07-13T14:34:35.964Z,53.87
2018-07-13T14:37:40.796Z,53.23
2018-07-13T14:40:45.282Z,52.97
2018-07-13T14:43:49.639Z,53.79
2018-07-13T14:46:54.669Z,54.48
2018-07-13T14:49:59.065Z,54.94
2018-07-13T14:53:03.454Z,54.73
2018-07-13T14:56:08.039Z,55.29
2018-07-13T14:59:12.313Z,55.75
2018-07-13T15:02:16.658Z,54.86
2018-07-13T15:05:21.191Z,55.67
2018-07-13T15:08:25.573Z,55.25
2018-07-13T15:11:29.945Z,55.56
2018-07-13T15:14:34.331Z,54.82
2018-07-13T15:17:38.993Z,54.13
2018-07-13T15:20:43.353Z,55.00
2018-07-13T15:23:47.968Z,52.48
2018-07-13T15:26:53.327Z,52.61
2018-07-13T15:29:57.639Z,51.07
2018-07-13T15:33:02.198Z,52.23
2018-07-13T15:36:06.553Z,52.21
2018-07-13T15:39:10.916Z,51.13
2018-07-13T15:42:15.295Z,50.38
2018-07-13T15:45:19.738Z,50.83
2018-07-13T15:48:24.259Z,50.75
2018-07-13T15:51:29.121Z,51.24
2018-07-13T15:54:34.359Z,51.95
2018-07-13T15:57:39.070Z,52.93
2018-07-13T16:00:43.478Z,52.44
2018-07-13T16:03:47.767Z,51.77
2018-07-13T16:06:52.132Z,50.41
2018-07-13T16:09:56.456Z,50.56
2018-07-13T16:13:00.890Z,50.97
2018-07-13T16:16:05.230Z,51.95
2018-07-13T16:19:09.557Z,51.89
2018-07-13T16:22:13.993Z,51.15
2018-07-13T16:25:18.305Z,50.81
2018-07-13T16:28:22.733Z,50.26
2018-07-13T16:31:27.589Z,50.78
2018-07-13T16:34:31.965Z,52.62
2018-07-13T16:37:36.336Z,51.27
2018-07-13T16:40:40.896Z,52.26
2018-07-13T16:43:45.473Z,51.49
2018-07-13T16:46:49.926Z,51.06
2018-07-13T16:49:54.359Z,51.85
2018-07-13T16:52:58.720Z,51.11
2018-07-13T16:56:03.211Z,51.97
2018-07-13T16:59:07.724Z,52.27
2018-07-13T17:02:12.153Z,53.30
2018-07-13T17:05:16.609Z,52.59
2018-07-13T17:08:20.961Z,52.18
2018-07-13T17:11:25.306Z,52.27
2018-07-13T17:14:29.856Z,53.50
2018-07-13T17:17:34.198Z,53.56
2018-07-13T17:20:38.600Z,53.82
2018-07-13T17:23:42.973Z,57.72
2018-07-13T17:26:47.398Z,59.93
2018-07-13T17:29:52.902Z,63.55
2018-07-13T17:32:58.556Z,65.22
2018-07-13T17:36:03.777Z,64.88
2018-07-13T17:39:08.276Z,65.15
2018-07-13T17:42:13.674Z,66.53
2018-07-13T17:45:18.674Z,66.28
2018-07-13T17:48:23.518Z,66.42
2018-07-13T17:51:28.152Z,67.38
2018-07-13T17:54:33.361Z,67.75
2018-07-13T17:57:37.923Z,67.78
2018-07-13T18:00:42.450Z,68.23
2018-07-13T18:03:48.120Z,67.13
2018-07-13T18:06:53.122Z,67.38
2018-07-13T18:09:57.728Z,68.14
2018-07-13T18:13:02.344Z,67.79
2018-07-13T18:16:07.072Z,68.08
2018-07-13T18:19:11.499Z,68.50
2018-07-13T18:22:15.881Z,68.29
2018-07-13T18:25:20.310Z,68.30
2018-07-13T18:28:24.753Z,69.23
2018-07-13T18:31:29.169Z,69.46
2018-07-13T18:34:33.878Z,70.11
2018-07-13T18:37:38.213Z,70.54
2018-07-13T18:40:42.625Z,71.01
2018-07-13T18:43:47.123Z,71.47
2018-07-13T18:46:51.575Z,71.24
2018-07-13T18:49:55.993Z,72.10
2018-07-13T18:53:00.381Z,72.32
2018-07-13T18:56:04.961Z,73.07
2018-07-13T18:59:09.352Z,73.42
2018-07-13T19:02:13.672Z,74.19
2018-07-13T19:05:18.017Z,74.04
2018-07-13T19:08:22.413Z,74.04
2018-07-13T19:11:26.981Z,74.35
2018-07-13T19:14:31.286Z,74.02
2018-07-13T19:17:35.661Z,74.58
2018-07-13T19:20:40.029Z,75.08
2018-07-13T19:23:44.384Z,75.18
2018-07-13T19:26:48.996Z,76.34
2018-07-13T19:29:53.339Z,77.04
2018-07-13T19:32:57.702Z,76.61
2018-07-13T19:36:02.120Z,76.74
2018-07-13T19:39:07.507Z,77.36
2018-07-13T19:42:12.026Z,77.36
2018-07-13T19:45:16.400Z,78.08
2018-07-13T19:48:20.745Z,77.56
2018-07-13T19:51:25.183Z,77.37
2018-07-13T19:54:29.589Z,77.13
2018-07-13T19:57:34.002Z,76.73
2018-07-13T20:00:38.397Z,77.27
2018-07-13T20:03:42.757Z,77.54
2018-07-13T20:06:47.048Z,77.39
2018-07-13T20:09:51.456Z,77.68
2018-07-13T20:12:55.767Z,76.33
2018-07-13T20:16:00.164Z,74.91
2018-07-13T20:19:04.565Z,75.38
2018-07-13T20:22:08.981Z,75.47
2018-07-13T20:25:13.363Z,75.19
2018-07-13T20:28:17.743Z,75.48
2018-07-13T20:31:22.165Z,75.33
2018-07-13T20:34:26.574Z,75.35
2018-07-13T20:37:31.026Z,75.05
2018-07-13T20:40:35.504Z,74.88
2018-07-13T20:43:40.031Z,74.58
2018-07-13T20:46:44.489Z,74.26
2018-07-13T20:49:48.815Z,74.84
2018-07-13T20:52:53.157Z,74.32
2018-07-13T20:55:57.477Z,75.78
2018-07-13T20:59:01.836Z,74.49
2018-07-13T21:02:06.363Z,75.03
2018-07-13T21:05:10.815Z,74.66
2018-07-13T21:08:15.170Z,74.36
2018-07-13T21:11:19.621Z,74.71
2018-07-13T21:14:24.043Z,74.75
2018-07-13T21:17:28.460Z,74.54
2018-07-13T21:20:32.806Z,73.99
2018-07-13T21:23:37.234Z,74.45
2018-07-13T21:26:41.832Z,74.70
2018-07-13T21:29:46.171Z,74.29
2018-07-13T21:32:50.493Z,74.74
2018-07-13T21:35:56.842Z,74.14
2018-07-13T21:39:01.466Z,74.71
2018-07-13T21:42:05.864Z,74.97
2018-07-13T21:45:10.348Z,75.58
2018-07-13T21:48:14.878Z,76.34
2018-07-13T21:51:19.324Z,76.16
2018-07-13T21:54:23.819Z,75.34
2018-07-13T21:57:28.169Z,76.33
2018-07-13T22:00:33.009Z,75.72
2018-07-13T22:03:37.500Z,75.59
2018-07-13T22:06:41.844Z,75.63
2018-07-13T22:09:46.111Z,75.67
2018-07-13T22:12:50.624Z,76.15
2018-07-13T22:15:55.175Z,76.32
2018-07-13T22:18:59.500Z,76.34
2018-07-13T22:22:03.854Z,76.23
2018-07-13T22:25:08.229Z,76.85
2018-07-13T22:28:12.535Z,77.59
2018-07-13T22:31:17.273Z,77.20
2018-07-13T22:34:21.842Z,76.52
2018-07-13T22:37:26.752Z,75.80
2018-07-13T22:40:31.095Z,74.95
2018-07-13T22:43:35.553Z,75.00
2018-07-13T22:46:40.115Z,75.27
2018-07-13T22:49:44.453Z,75.10
2018-07-13T22:52:48.787Z,75.52
2018-07-13T22:55:53.169Z,75.23
2018-07-13T22:58:57.480Z,75.09
2018-07-13T23:02:01.973Z,74.92
2018-07-13T23:05:06.569Z,75.03
2018-07-13T23:08:11.027Z,75.17
2018-07-13T23:11:15.319Z,75.37
2018-07-13T23:14:19.939Z,74.92
2018-07-13T23:17:24.343Z,76.39
2018-07-13T23:20:28.628Z,75.76
2018-07-13T23:23:32.903Z,76.37
2018-07-13T23:26:37.321Z,75.92
2018-07-13T23:29:41.651Z,75.08
2018-07-13T23:32:46.048Z,75.56
2018-07-13T23:35:50.349Z,75.30
2018-07-13T23:38:54.824Z,74.96
2018-07-13T23:41:59.074Z,75.21
2018-07-13T23:45:03.415Z,74.89
2018-07-13T23:48:07.885Z,74.80
2018-07-13T23:51:12.257Z,75.02
2018-07-13T23:54:16.675Z,74.78
2018-07-13T23:57:21.015Z,75.00
